EGPOEPGD

Guest
Details From EGPO - Stornoway
To EPGD - Lech Walesa
Flight Number -
Tags Generated
Created
Modified
Stats Distance 855 nm / 1,584 km
Max Altitude 0 ft / 0 m
Waypoints 4
Social Downloads 0
Likes 0
Share VATSIM

Download

Looking for another format? Having issues loading an existing format? Contact us
Advertisement - Login to hide

Notes

Generated

Route

EGPO DESOM R1850 EPGD

ID Type Via Altitude Latitude Longitude Leg Dist Tot Dist Heading (true) Name
O EGPO APT - 0 ft / 0 m 58.21205˚ -6.33581˚ - 0 nm - -
DESOM FIX - 0 ft / 0 m 56.18915˚ 10.95432˚ 573 nm 573 nm 95° / 109° -
R1850 FIX - 0 ft / 0 m 54.37127˚ 18.49172˚ 279 nm 853 nm 110° / 116° -
O EPGD APT - 0 ft / 0 m 54.38107˚ 18.45205˚ 1 nm 855 nm 293° / 293° -

Altitude Profile

Advertisement - Login to hide

Weather


0- 5 10 15 20 25 30 35+ Temperature / ° C

Clouds and Precipitation
Forecast for 2017-12-18 06:00 UTC. Updated 23 minutes ago

Ground ~20,000 ft ~40,000 ft Winds

EGPO

Details ICAO EGPO (SYY)
Name Stornoway
Region United Kingdom
Timezone Europe/London (UTC+0.0)
Stats Elevation 26 ft / 8 m (AMSL)
Location 58.214496° -6.330596°
Runways 2
Magnetic Variation 4.031° W

METAR

EGPO 180520Z AUTO 20008KT 9999 FEW031/// 05/04 Q1021

Decode

TAF

Not found

Departure Runways

ID Width Length Bearing (true) Bearing (mag) Surface Threshold Offset Overrun Length
07 75 ft / 23 m 3,574 ft / 1,090 m 59.83° 63.86° Asphalt 305 ft / 93 m 0 ft / 0 m
18 151 ft / 46 m 6,797 ft / 2,072 m 174.28° 178.31° Asphalt 0 ft / 0 m 397 ft / 121 m
25 75 ft / 23 m 3,574 ft / 1,090 m 239.84° 243.87° Asphalt 0 ft / 0 m 0 ft / 0 m
36 151 ft / 46 m 6,797 ft / 2,072 m 354.29° 358.32° Asphalt 0 ft / 0 m 394 ft / 120 m

EPGD

Details ICAO EPGD (GDN)
Name LECH WALESA
Region Poland
Timezone Europe/Warsaw (UTC+1.0)
Stats Elevation 489 ft / 149 m (AMSL)
Location 54.376167° 18.471884°
Runways 1
Magnetic Variation 5.452° E

METAR

EPGD 180530Z 23003KT 0300 R29/0700N FZFG FEW016 M06/M06 Q1023

Decode

TAF

TAF TAF EPGD 172330Z 1800/1824 26005KT 2000 BR OVC003 TEMPO 1800/1808 0200 FZFG OVC001 BECMG 1808/1810 7000 BKN015 PROB40 1816/1824 3000 BR

Decode

Destination Runways

ID Width Length Bearing (true) Bearing (mag) Surface Threshold Offset Overrun Length
11 148 ft / 45 m 9,158 ft / 2,791 m 112.96° 107.51° Asphalt 0 ft / 0 m 0 ft / 0 m
29 148 ft / 45 m 9,158 ft / 2,791 m 293.00° 287.55° Asphalt 0 ft / 0 m 0 ft / 0 m

Approach Navaids

Runway Type Ident Frequency Range Bearing (true) Bearing (mag) Slope Elevation
29 Localiser IGDA 110.30 MHz 18 nm / 33 km 292.96° 287.51° - 489 ft / 149 m (AMSL)
29 Glidescope IGDA 110.30 MHz 10 nm / 19 km 292.98° 287.53° 2.90° 489 ft / 149 m (AMSL)
29 DME IGDA 110.30 MHz 18 nm / 33 km - - - 492 ft / 150 m (AMSL)